Time;durP1;ratioP1;P1;durP2;ratioP2;P2;SDS_P1;SDS_P2;PMS_P1;PMS_P2;Temp;Humidity;BMP_temperature;BMP_pressure;BME280_temperature;BME280_humidity;BME280_pressure;Samples;Min_cycle;Max_cycle;Signal;HPM_P1;HPM_P2
2021/06/13 00:00:43;;;;;;;;;;;20.20;56.00;;;;;;5129747;27;20041;-68
2021/06/13 00:03:10;;;;;;;;;;;20.20;56.50;;;;;;5132747;27;19923;-73
2021/06/13 00:05:37;;;;;;;;;;;20.10;56.10;;;;;;5121567;27;19966;-68
2021/06/13 00:08:03;;;;;;;;;;;20.10;55.50;;;;;;5132635;27;19923;-69
2021/06/13 00:10:30;;;;;;;;;;;20.10;55.10;;;;;;5128510;27;19958;-68
2021/06/13 00:12:57;;;;;;;;;;;20.20;56.10;;;;;;5130502;27;19923;-68
2021/06/13 00:15:25;;;;;;;;;;;20.10;54.90;;;;;;5132505;27;19960;-68
2021/06/13 00:17:52;;;;;;;;;;;20.10;55.10;;;;;;5130766;27;20252;-67
2021/06/13 00:20:21;;;;;;;;;;;20.00;55.00;;;;;;5129489;27;19970;-68
2021/06/13 00:22:48;;;;;;;;;;;19.90;55.50;;;;;;5135363;27;19970;-68
2021/06/13 00:25:16;;;;;;;;;;;19.80;55.60;;;;;;5134717;27;20018;-68
2021/06/13 00:27:42;;;;;;;;;;;19.90;55.70;;;;;;5134326;27;20417;-68
2021/06/13 00:30:10;;;;;;;;;;;19.80;55.70;;;;;;5124735;27;20356;-68
2021/06/13 00:32:37;;;;;;;;;;;19.70;55.80;;;;;;5133739;27;20393;-68
2021/06/13 00:35:04;;;;;;;;;;;19.60;56.20;;;;;;5133757;27;20011;-68
2021/06/13 00:37:31;;;;;;;;;;;19.70;56.10;;;;;;5133361;27;20406;-68
2021/06/13 00:39:58;;;;;;;;;;;19.70;55.80;;;;;;5135674;27;20014;-68
2021/06/13 00:42:25;;;;;;;;;;;19.80;55.40;;;;;;5132781;27;20286;-68
2021/06/13 00:44:51;;;;;;;;;;;19.80;55.20;;;;;;5132759;27;20322;-69
2021/06/13 00:47:18;;;;;;;;;;;19.80;55.20;;;;;;5131955;27;19934;-68
2021/06/13 00:49:45;;;;;;;;;;;19.70;54.70;;;;;;5131136;27;20316;-68
2021/06/13 00:52:12;;;;;;;;;;;19.80;55.50;;;;;;5130068;27;19919;-68
2021/06/13 00:54:38;;;;;;;;;;;19.90;54.70;;;;;;5133150;27;19971;-68
2021/06/13 00:57:05;;;;;;;;;;;20.00;54.30;;;;;;5129714;27;19974;-69
2021/06/13 00:59:32;;;;;;;;;;;19.90;54.60;;;;;;5135514;27;20018;-69
2021/06/13 01:01:58;;;;;;;;;;;19.80;54.90;;;;;;5138377;27;19965;-70
2021/06/13 01:04:25;;;;;;;;;;;19.80;54.90;;;;;;5131524;27;20262;-70
2021/06/13 01:07:03;;;;;;;;;;;19.70;55.10;;;;;;5112791;27;20009;-69
2021/06/13 01:09:36;;;;;;;;;;;19.50;55.40;;;;;;5122279;27;19927;-69
2021/06/13 01:12:08;;;;;;;;;;;19.40;56.00;;;;;;5131918;27;19923;-70
2021/06/13 01:14:44;;;;;;;;;;;19.30;56.20;;;;;;5131938;27;19919;-69
2021/06/13 01:17:25;;;;;;;;;;;19.30;56.40;;;;;;5134602;27;20273;-69
2021/06/13 01:20:07;;;;;;;;;;;19.20;56.50;;;;;;5132611;27;19923;-69
2021/06/13 01:22:56;;;;;;;;;;;19.20;56.60;;;;;;5114722;27;20327;-69
2021/06/13 01:25:48;;;;;;;;;;;19.10;56.70;;;;;;5134126;27;19970;-69
2021/06/13 01:28:14;;;;;;;;;;;19.10;56.70;;;;;;5132227;27;19962;-71
2021/06/13 01:30:41;;;;;;;;;;;19.00;56.80;;;;;;5135152;27;20010;-69
2021/06/13 01:33:11;;;;;;;;;;;19.00;57.00;;;;;;5135698;27;20000;-70
2021/06/13 01:35:38;;;;;;;;;;;19.00;57.00;;;;;;5133876;27;20046;-69
2021/06/13 01:38:06;;;;;;;;;;;18.90;57.60;;;;;;5130266;27;19954;-69
2021/06/13 01:40:34;;;;;;;;;;;18.80;57.50;;;;;;5131201;27;19927;-70
2021/06/13 01:43:01;;;;;;;;;;;18.70;57.60;;;;;;5132485;27;19978;-69
2021/06/13 01:45:33;;;;;;;;;;;18.70;57.60;;;;;;5131746;27;20303;-69
2021/06/13 01:48:00;;;;;;;;;;;18.80;57.70;;;;;;5134403;27;20221;-69
2021/06/13 01:50:29;;;;;;;;;;;18.70;57.70;;;;;;5132332;27;19928;-69
2021/06/13 01:52:58;;;;;;;;;;;18.70;57.70;;;;;;5134317;27;19970;-69
2021/06/13 01:55:25;;;;;;;;;;;18.60;57.90;;;;;;5131407;27;19958;-69
2021/06/13 01:57:53;;;;;;;;;;;18.50;58.30;;;;;;5132014;27;21259;-69
2021/06/13 02:00:21;;;;;;;;;;;18.50;58.40;;;;;;5130412;27;19935;-69
2021/06/13 02:02:54;;;;;;;;;;;18.60;58.30;;;;;;5131787;27;20002;-69
2021/06/13 02:05:24;;;;;;;;;;;18.50;58.00;;;;;;5128593;27;19970;-69
2021/06/13 02:07:53;;;;;;;;;;;18.60;58.10;;;;;;5111984;27;19927;-69
2021/06/13 02:10:21;;;;;;;;;;;18.60;58.60;;;;;;5121189;27;19923;-69
2021/06/13 02:12:48;;;;;;;;;;;18.50;58.40;;;;;;5132704;27;19945;-69
2021/06/13 02:15:17;;;;;;;;;;;18.40;58.60;;;;;;5131487;27;20357;-70
2021/06/13 02:17:45;;;;;;;;;;;18.40;58.30;;;;;;5132797;27;20039;-69
2021/06/13 02:20:12;;;;;;;;;;;18.40;58.60;;;;;;5131972;27;20303;-69
2021/06/13 02:22:41;;;;;;;;;;;18.40;58.80;;;;;;5134094;27;19959;-69
2021/06/13 02:25:08;;;;;;;;;;;18.20;58.60;;;;;;5130112;27;20015;-68
2021/06/13 02:27:36;;;;;;;;;;;18.30;59.00;;;;;;5135071;27;20377;-69
2021/06/13 02:30:04;;;;;;;;;;;18.20;59.60;;;;;;5132137;27;20021;-68
2021/06/13 02:32:33;;;;;;;;;;;18.20;59.30;;;;;;5130044;27;19966;-68
2021/06/13 02:35:00;;;;;;;;;;;18.10;59.30;;;;;;5130528;27;19950;-68
2021/06/13 02:37:27;;;;;;;;;;;18.10;59.50;;;;;;5134333;27;20009;-68
2021/06/13 02:39:54;;;;;;;;;;;18.00;59.40;;;;;;5139313;27;20270;-68
2021/06/13 02:42:20;;;;;;;;;;;18.20;59.20;;;;;;5148657;27;19979;-68
2021/06/13 02:44:47;;;;;;;;;;;18.30;59.00;;;;;;5131656;27;20311;-68
2021/06/13 02:47:14;;;;;;;;;;;18.30;59.20;;;;;;5150879;27;19972;-68
2021/06/13 02:49:41;;;;;;;;;;;18.40;59.60;;;;;;5122608;27;20280;-69
2021/06/13 02:52:08;;;;;;;;;;;18.20;59.20;;;;;;5140518;27;20002;-68
2021/06/13 02:54:36;;;;;;;;;;;18.10;59.40;;;;;;5149841;27;19925;-68
2021/06/13 02:57:05;;;;;;;;;;;18.00;59.90;;;;;;5149400;27;19940;-68
2021/06/13 02:59:54;;;;;;;;;;;18.10;60.10;;;;;;5146916;27;19969;-68
2021/06/13 03:02:25;;;;;;;;;;;18.00;59.80;;;;;;5140694;27;19958;-68
2021/06/13 03:04:53;;;;;;;;;;;17.80;60.70;;;;;;5144215;27;19927;-68
2021/06/13 03:07:20;;;;;;;;;;;17.80;61.00;;;;;;5141914;27;20017;-69
2021/06/13 03:09:50;;;;;;;;;;;17.60;61.50;;;;;;5147073;27;20009;-69
2021/06/13 03:12:19;;;;;;;;;;;17.60;61.30;;;;;;5131594;27;19961;-67
2021/06/13 03:14:47;;;;;;;;;;;17.60;61.40;;;;;;5128752;27;19924;-68
2021/06/13 03:17:14;;;;;;;;;;;17.50;61.70;;;;;;5146658;27;19919;-68
2021/06/13 03:19:41;;;;;;;;;;;17.50;62.00;;;;;;5130728;27;19923;-69
2021/06/13 03:22:09;;;;;;;;;;;17.20;62.70;;;;;;5148075;27;20014;-67
2021/06/13 03:24:38;;;;;;;;;;;17.40;62.60;;;;;;5149422;27;20005;-69
2021/06/13 03:27:08;;;;;;;;;;;17.50;62.00;;;;;;5124679;27;20397;-67
2021/06/13 03:29:35;;;;;;;;;;;17.40;62.10;;;;;;5144201;27;20459;-67
2021/06/13 03:32:03;;;;;;;;;;;17.50;62.00;;;;;;5132566;27;19919;-68
2021/06/13 03:34:30;;;;;;;;;;;17.60;61.90;;;;;;5145283;27;20367;-68
2021/06/13 03:36:57;;;;;;;;;;;17.30;62.30;;;;;;5143082;27;19966;-67
2021/06/13 03:39:24;;;;;;;;;;;17.30;62.20;;;;;;5148588;27;19958;-68
2021/06/13 03:41:51;;;;;;;;;;;17.30;62.60;;;;;;5147086;27;20002;-67
2021/06/13 03:44:19;;;;;;;;;;;17.50;61.90;;;;;;5145658;27;20001;-67
2021/06/13 03:46:46;;;;;;;;;;;17.50;62.00;;;;;;5150049;27;20317;-67
2021/06/13 03:49:16;;;;;;;;;;;17.40;62.30;;;;;;5143781;27;19959;-67
2021/06/13 03:51:43;;;;;;;;;;;17.40;62.50;;;;;;5146877;27;20021;-68
2021/06/13 03:54:10;;;;;;;;;;;17.30;62.90;;;;;;5151437;27;19919;-68
2021/06/13 03:56:39;;;;;;;;;;;17.00;63.20;;;;;;5148056;27;19965;-67
2021/06/13 03:59:07;;;;;;;;;;;16.90;64.00;;;;;;5143916;27;19926;-69
2021/06/13 04:01:35;;;;;;;;;;;17.10;64.10;;;;;;5134634;27;20457;-69
2021/06/13 04:04:03;;;;;;;;;;;17.00;64.20;;;;;;5148890;27;19965;-69
2021/06/13 04:06:30;;;;;;;;;;;17.10;64.40;;;;;;5153262;27;19919;-69
2021/06/13 04:08:58;;;;;;;;;;;17.00;63.90;;;;;;5145474;27;19964;-69
2021/06/13 04:11:26;;;;;;;;;;;17.00;63.90;;;;;;5149840;27;20023;-69
2021/06/13 04:13:53;;;;;;;;;;;16.90;64.00;;;;;;5152720;27;20464;-67
2021/06/13 04:16:22;;;;;;;;;;;17.30;63.70;;;;;;5152941;27;19991;-67
2021/06/13 04:18:49;;;;;;;;;;;17.30;63.40;;;;;;5149188;27;20286;-67
2021/06/13 04:21:17;;;;;;;;;;;17.20;63.60;;;;;;5154161;27;20329;-67
2021/06/13 04:23:45;;;;;;;;;;;17.20;63.80;;;;;;5153011;27;19963;-67
2021/06/13 04:26:16;;;;;;;;;;;17.20;63.90;;;;;;5150866;27;19927;-66
2021/06/13 04:28:43;;;;;;;;;;;17.20;63.80;;;;;;5144168;27;19963;-68
2021/06/13 04:31:12;;;;;;;;;;;17.40;63.10;;;;;;5152247;27;19926;-69
2021/06/13 04:33:40;;;;;;;;;;;17.30;63.20;;;;;;5149996;27;19927;-66
2021/06/13 04:36:07;;;;;;;;;;;17.40;63.10;;;;;;5146473;27;20006;-69
2021/06/13 04:38:34;;;;;;;;;;;17.40;63.00;;;;;;5150824;27;20306;-66
2021/06/13 04:41:02;;;;;;;;;;;17.40;63.40;;;;;;5150205;27;19922;-67
2021/06/13 04:43:29;;;;;;;;;;;17.60;62.70;;;;;;5152727;27;19919;-68
2021/06/13 04:45:56;;;;;;;;;;;17.60;62.60;;;;;;5130510;27;19987;-68
2021/06/13 04:48:22;;;;;;;;;;;17.50;62.80;;;;;;5148315;27;20543;-67
2021/06/13 04:50:49;;;;;;;;;;;17.60;62.00;;;;;;5155404;27;20003;-67
2021/06/13 04:53:47;;;;;;;;;;;17.80;61.60;;;;;;5151177;27;20005;-67
2021/06/13 04:56:22;;;;;;;;;;;18.00;60.70;;;;;;5149921;27;20334;-68
2021/06/13 04:58:49;;;;;;;;;;;18.20;60.40;;;;;;5148315;27;22803;-67
2021/06/13 05:01:16;;;;;;;;;;;18.60;59.20;;;;;;5153109;27;19961;-68
2021/06/13 05:03:43;;;;;;;;;;;18.60;59.10;;;;;;5152355;27;20385;-69
2021/06/13 05:06:10;;;;;;;;;;;18.70;58.90;;;;;;5152249;27;20010;-70
2021/06/13 05:08:40;;;;;;;;;;;18.70;58.80;;;;;;5145458;27;19955;-71
2021/06/13 05:11:07;;;;;;;;;;;18.90;58.60;;;;;;5151786;27;19969;-71
2021/06/13 05:13:34;;;;;;;;;;;19.50;57.10;;;;;;5148157;27;19927;-72
2021/06/13 05:16:00;;;;;;;;;;;19.70;56.60;;;;;;5150055;27;20009;-68
2021/06/13 05:18:27;;;;;;;;;;;20.40;55.80;;;;;;5147468;27;19923;-72
2021/06/13 05:20:54;;;;;;;;;;;21.00;54.80;;;;;;5151855;27;19958;-70
2021/06/13 05:23:21;;;;;;;;;;;20.80;54.40;;;;;;5148525;27;19980;-70
2021/06/13 05:25:49;;;;;;;;;;;20.30;55.30;;;;;;5149669;27;19964;-69
2021/06/13 05:28:15;;;;;;;;;;;19.60;56.50;;;;;;5148779;27;20574;-70
2021/06/13 05:30:43;;;;;;;;;;;20.10;56.70;;;;;;5148231;27;20024;-69
2021/06/13 05:33:10;;;;;;;;;;;21.30;54.90;;;;;;5150092;27;20058;-69
2021/06/13 05:35:37;;;;;;;;;;;21.70;53.80;;;;;;5149195;27;20423;-68
2021/06/13 05:38:05;;;;;;;;;;;22.60;53.00;;;;;;5146983;27;20270;-69
2021/06/13 05:40:32;;;;;;;;;;;20.50;54.40;;;;;;5130414;27;19927;-70
2021/06/13 05:42:59;;;;;;;;;;;19.20;57.60;;;;;;5134117;27;20005;-70
2021/06/13 05:45:27;;;;;;;;;;;18.80;58.00;;;;;;5131671;27;19925;-70
2021/06/13 05:47:54;;;;;;;;;;;18.20;59.30;;;;;;5151527;27;19918;-69
2021/06/13 05:50:21;;;;;;;;;;;18.40;59.30;;;;;;5149762;27;19919;-71
2021/06/13 05:52:48;;;;;;;;;;;18.60;58.90;;;;;;5146233;27;19971;-71
2021/06/13 05:55:17;;;;;;;;;;;18.40;58.30;;;;;;5152308;27;20330;-70
2021/06/13 05:57:44;;;;;;;;;;;18.50;58.00;;;;;;5149683;27;20317;-70
2021/06/13 06:00:18;;;;;;;;;;;18.20;57.90;;;;;;5144335;27;20400;-69
2021/06/13 06:02:46;;;;;;;;;;;18.20;58.20;;;;;;5124623;27;20254;-70
2021/06/13 06:05:14;;;;;;;;;;;18.30;57.90;;;;;;5149616;27;20076;-69
2021/06/13 06:07:40;;;;;;;;;;;18.70;57.50;;;;;;5147901;27;20374;-68
2021/06/13 06:10:08;;;;;;;;;;;18.30;58.30;;;;;;5149620;27;20021;-68
2021/06/13 06:12:35;;;;;;;;;;;18.20;57.70;;;;;;5146646;27;19923;-69
2021/06/13 06:15:03;;;;;;;;;;;18.40;58.00;;;;;;5150853;27;20265;-69
2021/06/13 06:17:30;;;;;;;;;;;18.20;57.70;;;;;;5152142;27;20009;-68
2021/06/13 06:19:57;;;;;;;;;;;18.20;57.60;;;;;;5147027;27;20274;-70
2021/06/13 06:22:23;;;;;;;;;;;18.40;57.20;;;;;;5149614;27;20397;-68
2021/06/13 06:24:50;;;;;;;;;;;18.70;56.40;;;;;;5151805;27;19919;-68
2021/06/13 06:27:17;;;;;;;;;;;18.60;57.10;;;;;;5126371;27;19927;-68
2021/06/13 06:29:43;;;;;;;;;;;18.70;57.00;;;;;;5144421;27;19954;-68
2021/06/13 06:32:10;;;;;;;;;;;19.10;57.10;;;;;;5150954;27;20009;-69
2021/06/13 06:34:37;;;;;;;;;;;20.90;54.40;;;;;;5148436;27;19919;-69
2021/06/13 06:37:04;;;;;;;;;;;20.40;53.90;;;;;;5149883;27;19957;-70
2021/06/13 06:39:31;;;;;;;;;;;19.90;54.40;;;;;;5150810;27;20405;-70
2021/06/13 06:41:57;;;;;;;;;;;20.10;55.40;;;;;;5143005;27;20403;-71
2021/06/13 06:44:24;;;;;;;;;;;20.50;54.10;;;;;;5147768;27;19922;-69
2021/06/13 06:46:51;;;;;;;;;;;20.60;53.90;;;;;;5150799;27;19965;-69
2021/06/13 06:49:18;;;;;;;;;;;21.10;53.60;;;;;;5147557;27;20441;-70
2021/06/13 06:51:45;;;;;;;;;;;23.60;50.10;;;;;;5149024;27;19982;-69
2021/06/13 06:54:11;;;;;;;;;;;24.90;47.70;;;;;;5147749;27;20021;-69
2021/06/13 06:56:38;;;;;;;;;;;22.00;49.90;;;;;;5146801;27;20037;-69
2021/06/13 06:59:05;;;;;;;;;;;20.20;53.20;;;;;;5117982;27;19923;-69
2021/06/13 07:01:31;;;;;;;;;;;19.80;54.40;;;;;;5148559;27;19973;-69
2021/06/13 07:03:58;;;;;;;;;;;19.50;55.10;;;;;;5145342;27;19931;-68
2021/06/13 07:06:25;;;;;;;;;;;19.40;55.00;;;;;;5151083;27;19966;-69
2021/06/13 07:08:52;;;;;;;;;;;19.30;55.20;;;;;;5146370;27;19964;-69
2021/06/13 07:11:19;;;;;;;;;;;19.20;55.80;;;;;;5129311;27;20461;-69
2021/06/13 07:13:45;;;;;;;;;;;19.30;55.40;;;;;;5150234;27;19962;-70
2021/06/13 07:16:12;;;;;;;;;;;19.50;55.40;;;;;;5147000;27;20369;-70
2021/06/13 07:18:39;;;;;;;;;;;19.80;54.50;;;;;;5145903;27;20290;-70
2021/06/13 07:21:06;;;;;;;;;;;21.00;54.20;;;;;;5151552;27;19973;-70
2021/06/13 07:23:33;;;;;;;;;;;21.60;51.90;;;;;;5141694;27;19955;-70
2021/06/13 07:26:00;;;;;;;;;;;23.50;49.60;;;;;;5145063;27;19923;-70
2021/06/13 07:28:26;;;;;;;;;;;22.70;48.30;;;;;;5150047;27;20018;-71
2021/06/13 07:30:53;;;;;;;;;;;21.70;49.60;;;;;;5144543;27;20239;-70
2021/06/13 07:33:22;;;;;;;;;;;20.50;51.40;;;;;;5144578;27;19926;-70
2021/06/13 07:35:49;;;;;;;;;;;20.10;53.30;;;;;;5149104;27;19926;-70
2021/06/13 07:38:16;;;;;;;;;;;20.10;53.40;;;;;;5145926;27;20279;-68
2021/06/13 07:40:42;;;;;;;;;;;20.40;53.10;;;;;;5148022;27;20029;-69
2021/06/13 07:43:09;;;;;;;;;;;20.30;52.80;;;;;;5130864;27;19975;-69
2021/06/13 07:45:36;;;;;;;;;;;20.20;53.60;;;;;;5146555;27;19971;-69
2021/06/13 07:48:10;;;;;;;;;;;20.30;53.90;;;;;;5145071;27;19954;-68
2021/06/13 07:50:37;;;;;;;;;;;19.90;53.10;;;;;;5146888;27;19973;-69
2021/06/13 07:53:05;;;;;;;;;;;19.80;54.00;;;;;;5119627;27;20983;-68
2021/06/13 07:55:32;;;;;;;;;;;19.60;54.10;;;;;;5150313;27;20021;-68
2021/06/13 07:57:59;;;;;;;;;;;19.90;54.60;;;;;;5130363;27;20014;-69
2021/06/13 08:00:25;;;;;;;;;;;19.90;54.00;;;;;;5143184;27;20014;-69
2021/06/13 08:02:52;;;;;;;;;;;19.90;54.00;;;;;;5150156;27;19989;-70
2021/06/13 08:05:25;;;;;;;;;;;19.90;53.50;;;;;;5144362;27;19926;-68
2021/06/13 08:07:53;;;;;;;;;;;19.80;53.70;;;;;;5136218;27;20389;-69
2021/06/13 08:10:20;;;;;;;;;;;19.80;53.90;;;;;;5131272;27;20017;-68
2021/06/13 08:12:46;;;;;;;;;;;19.40;54.20;;;;;;5126568;27;19929;-69
2021/06/13 08:15:14;;;;;;;;;;;19.60;54.30;;;;;;5146943;27;20378;-70
2021/06/13 08:17:41;;;;;;;;;;;19.40;54.50;;;;;;5150740;27;19970;-68
2021/06/13 08:20:08;;;;;;;;;;;19.50;54.30;;;;;;5144974;27;20411;-68
2021/06/13 08:22:35;;;;;;;;;;;19.60;53.30;;;;;;5129314;27;20262;-69
2021/06/13 08:25:02;;;;;;;;;;;19.70;53.20;;;;;;5144851;27;20486;-67
2021/06/13 08:27:29;;;;;;;;;;;19.70;51.60;;;;;;5143231;27;20013;-69
2021/06/13 08:29:56;;;;;;;;;;;19.60;52.00;;;;;;5142354;27;19927;-68
2021/06/13 08:32:23;;;;;;;;;;;19.80;51.60;;;;;;5146966;27;19919;-68
2021/06/13 08:34:50;;;;;;;;;;;19.60;52.20;;;;;;5144218;27;20014;-69
2021/06/13 08:37:17;;;;;;;;;;;19.40;53.10;;;;;;5147486;27;19966;-68
2021/06/13 08:39:43;;;;;;;;;;;19.60;53.10;;;;;;5143129;27;19970;-69
2021/06/13 08:42:10;;;;;;;;;;;19.70;53.20;;;;;;5146703;27;19991;-71
2021/06/13 08:44:38;;;;;;;;;;;19.80;53.30;;;;;;5146377;27;19926;-69
2021/06/13 08:47:05;;;;;;;;;;;19.80;52.00;;;;;;5135000;27;19966;-69
2021/06/13 08:49:32;;;;;;;;;;;19.80;52.50;;;;;;5137198;27;19930;-69
2021/06/13 08:51:59;;;;;;;;;;;19.80;53.00;;;;;;5138729;27;19927;-69
2021/06/13 08:54:26;;;;;;;;;;;19.90;53.10;;;;;;5139430;27;19972;-69
2021/06/13 08:56:53;;;;;;;;;;;20.10;52.70;;;;;;5140931;27;20315;-69
2021/06/13 08:59:19;;;;;;;;;;;20.20;51.80;;;;;;5138842;27;20035;-72
2021/06/13 09:01:46;;;;;;;;;;;20.10;52.10;;;;;;5135076;27;20282;-70
2021/06/13 09:04:13;;;;;;;;;;;20.30;52.00;;;;;;5117880;27;19927;-69
2021/06/13 09:06:40;;;;;;;;;;;20.30;53.00;;;;;;5137632;27;20009;-68
2021/06/13 09:09:18;;;;;;;;;;;20.10;51.80;;;;;;5137458;27;20274;-68
2021/06/13 09:12:02;;;;;;;;;;;20.10;53.40;;;;;;5118327;27;20007;-68
2021/06/13 09:14:29;;;;;;;;;;;20.10;52.50;;;;;;5118576;27;19958;-70
2021/06/13 09:16:56;;;;;;;;;;;20.20;53.20;;;;;;5137476;27;20382;-70
2021/06/13 09:19:23;;;;;;;;;;;20.20;52.20;;;;;;5123827;27;19927;-70
2021/06/13 09:21:50;;;;;;;;;;;20.20;51.80;;;;;;5138125;27;19926;-70
2021/06/13 09:24:20;;;;;;;;;;;20.30;51.40;;;;;;5139500;27;19923;-70
2021/06/13 09:26:46;;;;;;;;;;;20.50;51.20;;;;;;5140770;27;20542;-70
2021/06/13 09:29:13;;;;;;;;;;;20.40;50.30;;;;;;5139527;27;19970;-70
2021/06/13 09:31:40;;;;;;;;;;;20.30;50.80;;;;;;5119664;27;19991;-71
2021/06/13 09:34:18;;;;;;;;;;;20.30;51.00;;;;;;5135446;27;19931;-69
2021/06/13 09:36:45;;;;;;;;;;;20.40;52.80;;;;;;5135783;27;20014;-70
2021/06/13 09:39:13;;;;;;;;;;;20.60;51.60;;;;;;5116571;27;19997;-69
2021/06/13 09:41:40;;;;;;;;;;;20.50;50.90;;;;;;5138098;27;19966;-69
2021/06/13 09:44:12;;;;;;;;;;;20.50;50.80;;;;;;5138042;27;20010;-68
2021/06/13 09:46:39;;;;;;;;;;;20.70;51.90;;;;;;5119225;27;19927;-69
2021/06/13 09:49:08;;;;;;;;;;;20.80;50.70;;;;;;5137467;27;20005;-68
2021/06/13 09:51:38;;;;;;;;;;;20.80;51.60;;;;;;5115341;27;19966;-70
2021/06/13 09:54:05;;;;;;;;;;;20.70;51.00;;;;;;5134493;27;19927;-69
2021/06/13 09:56:33;;;;;;;;;;;20.80;51.10;;;;;;5142382;27;20021;-69
2021/06/13 09:59:04;;;;;;;;;;;20.80;50.40;;;;;;5141107;27;19919;-68
2021/06/13 10:01:41;;;;;;;;;;;20.70;51.00;;;;;;5147400;27;19977;-68
2021/06/13 10:04:24;;;;;;;;;;;20.70;50.70;;;;;;5146109;27;19971;-67
2021/06/13 10:06:52;;;;;;;;;;;20.80;50.60;;;;;;5145067;27;19977;-69
2021/06/13 10:09:19;;;;;;;;;;;20.90;50.40;;;;;;5147677;27;19958;-66
2021/06/13 10:11:47;;;;;;;;;;;21.00;49.60;;;;;;5151746;27;19978;-67
2021/06/13 10:14:17;;;;;;;;;;;21.10;49.90;;;;;;5149274;27;19966;-68
2021/06/13 10:16:50;;;;;;;;;;;21.10;49.60;;;;;;5148529;27;20417;-69
2021/06/13 10:19:20;;;;;;;;;;;21.20;50.10;;;;;;5131739;27;20013;-68
2021/06/13 10:21:57;;;;;;;;;;;21.20;49.50;;;;;;5149335;27;19919;-68
2021/06/13 10:24:25;;;;;;;;;;;21.30;49.40;;;;;;5150514;27;19972;-68
2021/06/13 10:27:00;;;;;;;;;;;21.40;49.20;;;;;;5152197;27;20379;-68
2021/06/13 10:29:28;;;;;;;;;;;21.40;49.30;;;;;;5131306;27;20636;-71
2021/06/13 10:31:56;;;;;;;;;;;21.40;48.50;;;;;;5148623;27;19978;-71
2021/06/13 10:34:24;;;;;;;;;;;21.40;49.60;;;;;;5139725;27;20022;-72
2021/06/13 10:36:52;;;;;;;;;;;21.30;48.60;;;;;;5149044;27;20574;-71
2021/06/13 10:39:20;;;;;;;;;;;21.30;47.80;;;;;;5129968;27;20018;-71
2021/06/13 10:41:47;;;;;;;;;;;21.40;49.10;;;;;;5151437;27;20306;-68
2021/06/13 10:44:16;;;;;;;;;;;21.40;48.70;;;;;;5146993;27;20001;-68
2021/06/13 10:46:44;;;;;;;;;;;21.50;48.90;;;;;;5148107;27;19919;-68
2021/06/13 10:49:31;;;;;;;;;;;21.60;49.30;;;;;;5147699;27;19926;-68
2021/06/13 10:52:08;;;;;;;;;;;21.50;47.90;;;;;;5128231;27;19921;-68
2021/06/13 10:54:36;;;;;;;;;;;21.60;49.10;;;;;;5141653;27;19970;-69
2021/06/13 10:57:02;;;;;;;;;;;21.70;47.70;;;;;;5152192;27;19970;-69
2021/06/13 10:59:33;;;;;;;;;;;21.80;48.00;;;;;;5130218;27;19991;-67
2021/06/13 11:02:08;;;;;;;;;;;21.80;48.20;;;;;;5149065;27;20425;-69
2021/06/13 11:04:47;;;;;;;;;;;21.90;47.40;;;;;;5132963;27;19955;-69
2021/06/13 11:07:29;;;;;;;;;;;21.90;47.40;;;;;;5125682;27;20313;-68
2021/06/13 11:10:02;;;;;;;;;;;21.80;46.80;;;;;;5143623;27;19919;-71
2021/06/13 11:12:38;;;;;;;;;;;21.90;47.90;;;;;;5148306;27;19965;-71
2021/06/13 11:15:08;;;;;;;;;;;21.90;48.50;;;;;;5150140;27;20261;-70
2021/06/13 11:17:50;;;;;;;;;;;22.00;47.70;;;;;;5147992;27;19977;-70
2021/06/13 11:23:00;;;;;;;;;;;21.90;48.40;;;;;;5150510;27;19942;-70
2021/06/13 11:25:31;;;;;;;;;;;22.10;48.30;;;;;;5146603;27;20037;-70
2021/06/13 11:28:07;;;;;;;;;;;22.50;47.80;;;;;;5145695;27;19993;-71
2021/06/13 11:30:34;;;;;;;;;;;22.30;47.30;;;;;;5125747;27;19950;-71
2021/06/13 11:33:01;;;;;;;;;;;22.20;47.00;;;;;;5148465;27;19958;-70
2021/06/13 11:35:30;;;;;;;;;;;22.10;47.00;;;;;;5148280;27;20018;-67
2021/06/13 11:38:09;;;;;;;;;;;22.30;48.00;;;;;;5149554;27;20002;-69
2021/06/13 11:40:37;;;;;;;;;;;22.30;47.30;;;;;;5144868;27;20354;-68
2021/06/13 11:43:10;;;;;;;;;;;22.30;47.20;;;;;;5147616;27;20013;-68
2021/06/13 11:45:37;;;;;;;;;;;22.50;48.00;;;;;;5151462;27;19967;-67
2021/06/13 11:48:24;;;;;;;;;;;22.40;48.40;;;;;;5144152;27;20006;-67
2021/06/13 11:51:17;;;;;;;;;;;22.50;47.20;;;;;;5138703;27;19966;-70
2021/06/13 11:54:00;;;;;;;;;;;22.50;46.90;;;;;;5123125;27;19999;-71
2021/06/13 11:56:33;;;;;;;;;;;22.60;46.70;;;;;;5140598;27;20591;-71
2021/06/13 11:59:12;;;;;;;;;;;22.70;46.60;;;;;;5144962;27;19919;-70
2021/06/13 12:01:39;;;;;;;;;;;22.80;45.60;;;;;;5146963;27;19964;-69
2021/06/13 12:04:07;;;;;;;;;;;22.90;47.30;;;;;;5131897;27;19927;-71
2021/06/13 12:06:35;;;;;;;;;;;22.90;47.10;;;;;;5148097;27;19950;-71
2021/06/13 12:09:09;;;;;;;;;;;23.10;47.10;;;;;;5147398;27;19969;-72
2021/06/13 12:11:37;;;;;;;;;;;23.00;47.00;;;;;;5150796;27;19927;-70
2021/06/13 12:14:16;;;;;;;;;;;23.30;45.10;;;;;;5145077;27;20030;-67
2021/06/13 12:16:43;;;;;;;;;;;24.40;45.70;;;;;;5146203;27;19919;-68
2021/06/13 12:19:10;;;;;;;;;;;26.40;42.50;;;;;;5149594;27;19946;-68
2021/06/13 12:21:37;;;;;;;;;;;27.60;39.20;;;;;;5155645;27;19999;-69
2021/06/13 12:24:16;;;;;;;;;;;31.20;36.50;;;;;;5149205;27;19919;-69
2021/06/13 12:29:27;;;;;;;;;;;37.50;26.50;;;;;;5141426;27;19923;-69
2021/06/13 12:31:55;;;;;;;;;;;37.90;25.50;;;;;;5152174;27;19977;-68
2021/06/13 12:34:22;;;;;;;;;;;37.30;25.90;;;;;;5150114;27;20022;-68
2021/06/13 12:36:53;;;;;;;;;;;37.20;25.30;;;;;;5155260;27;20338;-67
2021/06/13 12:39:38;;;;;;;;;;;39.60;25.00;;;;;;5130563;27;20373;-68
2021/06/13 12:42:08;;;;;;;;;;;39.80;24.40;;;;;;5142514;27;20254;-69
2021/06/13 12:44:36;;;;;;;;;;;39.00;25.40;;;;;;5153606;27;20009;-67
2021/06/13 12:47:03;;;;;;;;;;;37.70;25.20;;;;;;5133348;27;19927;-68
2021/06/13 12:49:41;;;;;;;;;;;35.00;27.40;;;;;;5147909;27;20467;-68
2021/06/13 12:52:18;;;;;;;;;;;35.00;28.30;;;;;;5153281;27;20365;-68
2021/06/13 12:54:52;;;;;;;;;;;33.70;28.20;;;;;;5152376;27;20038;-69
2021/06/13 12:57:19;;;;;;;;;;;32.60;30.00;;;;;;5151356;27;20007;-68
2021/06/13 12:59:46;;;;;;;;;;;32.70;29.80;;;;;;5153060;27;20005;-68
2021/06/13 13:02:14;;;;;;;;;;;32.70;30.20;;;;;;5151491;27;19993;-67
2021/06/13 13:04:41;;;;;;;;;;;31.70;30.00;;;;;;5150237;27;19954;-68
2021/06/13 13:07:12;;;;;;;;;;;30.90;31.80;;;;;;5153598;27;20295;-68
2021/06/13 13:09:57;;;;;;;;;;;31.00;31.30;;;;;;5152795;27;19923;-68
2021/06/13 13:12:24;;;;;;;;;;;31.20;30.60;;;;;;5151882;27;19993;-68
2021/06/13 13:14:50;;;;;;;;;;;31.10;30.10;;;;;;5144018;27;20039;-68
2021/06/13 13:17:26;;;;;;;;;;;30.90;30.30;;;;;;5153208;27;20377;-68
2021/06/13 13:19:53;;;;;;;;;;;30.00;30.60;;;;;;5149352;27;20389;-67
2021/06/13 13:22:20;;;;;;;;;;;30.30;30.20;;;;;;5151721;27;19919;-68
2021/06/13 13:24:46;;;;;;;;;;;29.70;31.10;;;;;;5151838;27;20281;-69
2021/06/13 13:27:17;;;;;;;;;;;29.00;32.30;;;;;;5144236;27;19919;-68
2021/06/13 13:29:45;;;;;;;;;;;29.30;31.40;;;;;;5142442;27;20389;-68
2021/06/13 13:32:12;;;;;;;;;;;29.10;30.30;;;;;;5148741;27;19954;-68
2021/06/13 13:34:45;;;;;;;;;;;28.70;33.30;;;;;;5149180;27;20463;-68
2021/06/13 13:37:14;;;;;;;;;;;28.80;30.80;;;;;;5151600;27;20611;-67
2021/06/13 13:39:41;;;;;;;;;;;28.80;32.00;;;;;;5151114;27;20299;-68
2021/06/13 13:42:10;;;;;;;;;;;29.00;30.60;;;;;;5148800;27;20009;-68
2021/06/13 13:44:37;;;;;;;;;;;28.70;32.60;;;;;;5141069;27;19969;-68
2021/06/13 13:47:09;;;;;;;;;;;28.80;33.60;;;;;;5127068;27;20010;-67
2021/06/13 13:49:36;;;;;;;;;;;28.30;32.20;;;;;;5141408;27;20027;-68
2021/06/13 13:52:03;;;;;;;;;;;28.10;33.10;;;;;;5131167;27;19923;-67
2021/06/13 13:54:31;;;;;;;;;;;28.20;31.40;;;;;;5138814;27;20007;-67
2021/06/13 13:56:59;;;;;;;;;;;27.60;32.80;;;;;;5150252;27;20497;-70
2021/06/13 13:59:27;;;;;;;;;;;27.40;34.30;;;;;;5138730;27;19964;-70
2021/06/13 14:01:54;;;;;;;;;;;27.20;33.40;;;;;;5134242;27;20362;-70
2021/06/13 14:04:22;;;;;;;;;;;27.00;33.80;;;;;;5130049;27;19948;-70
2021/06/13 14:06:49;;;;;;;;;;;26.30;34.60;;;;;;5146594;27;20274;-71
2021/06/13 14:09:16;;;;;;;;;;;26.40;35.80;;;;;;5123963;27;20009;-71
2021/06/13 14:11:43;;;;;;;;;;;26.40;34.80;;;;;;5149650;27;20013;-68
2021/06/13 14:14:10;;;;;;;;;;;26.40;35.70;;;;;;5145195;27;20018;-69
2021/06/13 14:16:36;;;;;;;;;;;26.30;35.40;;;;;;5150393;27;19926;-67
2021/06/13 14:19:03;;;;;;;;;;;26.20;35.80;;;;;;5147311;27;20342;-69
2021/06/13 14:21:30;;;;;;;;;;;26.30;36.40;;;;;;5143280;27;19990;-67
2021/06/13 14:23:56;;;;;;;;;;;26.00;35.20;;;;;;5151917;27;19976;-67
2021/06/13 14:26:23;;;;;;;;;;;25.90;35.50;;;;;;5149562;27;20006;-67
2021/06/13 14:28:50;;;;;;;;;;;26.10;36.50;;;;;;5142932;27;20331;-68
2021/06/13 14:31:18;;;;;;;;;;;26.10;37.50;;;;;;5150906;27;20338;-68